createdAt,value
2022-12-03T00:04:22.780Z,26.77
2022-12-03T00:09:16.659Z,23.77
2022-12-03T00:14:09.227Z,24.50
2022-12-03T00:19:01.751Z,24.00
2022-12-03T00:23:55.161Z,24.30
2022-12-03T00:28:49.052Z,26.30
2022-12-03T00:33:41.652Z,20.77
2022-12-03T00:38:34.280Z,23.30
2022-12-03T00:43:26.839Z,22.23
2022-12-03T00:48:20.705Z,20.50
2022-12-03T00:53:13.246Z,26.43
2022-12-03T00:58:08.309Z,23.10
2022-12-03T01:03:00.915Z,21.03
2022-12-03T01:07:54.947Z,22.67
2022-12-03T01:12:47.526Z,23.27
2022-12-03T01:17:40.422Z,22.23
2022-12-03T01:22:33.261Z,22.60
2022-12-03T01:27:27.122Z,22.53
2022-12-03T01:32:20.196Z,21.80
2022-12-03T01:37:12.862Z,24.30
2022-12-03T01:42:05.797Z,24.40
2022-12-03T01:47:01.119Z,24.23
2022-12-03T01:51:53.795Z,24.93
2022-12-03T01:56:47.226Z,25.07
2022-12-03T02:01:39.826Z,27.40
2022-12-03T02:06:33.806Z,27.23
2022-12-03T02:11:29.220Z,25.20
2022-12-03T02:16:21.852Z,27.50
2022-12-03T02:21:17.731Z,26.57
2022-12-03T02:26:11.687Z,27.60
2022-12-03T02:31:05.238Z,31.27
2022-12-03T02:36:03.119Z,29.90
2022-12-03T02:40:57.709Z,26.00
2022-12-03T02:45:53.057Z,26.43
2022-12-03T02:50:47.320Z,24.90
2022-12-03T02:55:40.048Z,28.20
2022-12-03T03:00:32.665Z,28.73
2022-12-03T03:05:26.715Z,30.07
2022-12-03T03:10:22.043Z,28.90
2022-12-03T03:15:14.787Z,30.30
2022-12-03T03:20:08.978Z,29.00
2022-12-03T03:25:03.356Z,27.90
2022-12-03T03:29:57.166Z,28.07
2022-12-03T03:34:49.830Z,29.07
2022-12-03T03:39:42.421Z,30.50
2022-12-03T03:44:36.587Z,40.73
2022-12-03T03:49:29.531Z,35.20
2022-12-03T03:54:22.760Z,44.53
2022-12-03T03:59:15.443Z,33.93
2022-12-03T04:04:16.734Z,55.60
2022-12-03T04:09:09.324Z,44.87
2022-12-03T04:14:02.190Z,36.93
2022-12-03T04:18:54.709Z,36.10
2022-12-03T04:23:49.167Z,41.10
2022-12-03T04:28:50.642Z,39.33
2022-12-03T04:34:00.767Z,36.77
2022-12-03T04:38:54.734Z,36.97
2022-12-03T04:44:01.220Z,40.23
2022-12-03T04:48:53.776Z,43.53
2022-12-03T04:53:46.564Z,43.90
2022-12-03T04:58:40.521Z,62.97
2022-12-03T05:03:33.098Z,141.60
2022-12-03T05:08:25.660Z,173.97
2022-12-03T05:13:18.227Z,207.67
2022-12-03T05:18:12.133Z,319.93
2022-12-03T05:23:04.734Z,201.80
2022-12-03T05:27:57.290Z,99.50
2022-12-03T05:32:50.023Z,269.37
2022-12-03T05:37:43.953Z,172.43
2022-12-03T05:42:54.443Z,170.73
2022-12-03T05:47:46.992Z,167.37
2022-12-03T05:52:39.508Z,167.40
2022-12-03T05:57:33.414Z,162.60
2022-12-03T06:02:26.004Z,266.87
2022-12-03T06:07:18.677Z,377.00
2022-12-03T06:12:11.284Z,161.63
2022-12-03T06:17:05.296Z,239.73
2022-12-03T06:21:57.879Z,182.37
2022-12-03T06:26:50.419Z,255.87
2022-12-03T06:31:43.084Z,114.97
2022-12-03T06:36:37.024Z,166.93
2022-12-03T06:41:29.571Z,287.87
2022-12-03T06:46:22.176Z,217.97
2022-12-03T06:51:14.784Z,292.13
2022-12-03T06:56:08.953Z,305.87
2022-12-03T07:01:01.558Z,191.20
2022-12-03T07:05:54.152Z,226.47
2022-12-03T07:10:46.783Z,204.90
2022-12-03T07:15:40.764Z,203.97
2022-12-03T07:20:33.403Z,230.07
2022-12-03T07:25:26.003Z,213.80
2022-12-03T07:30:19.097Z,195.60
2022-12-03T07:35:13.088Z,312.90
2022-12-03T07:40:06.695Z,232.23
2022-12-03T07:44:59.310Z,229.63
2022-12-03T07:49:51.878Z,207.73
2022-12-03T07:54:45.812Z,265.37
2022-12-03T07:59:38.388Z,357.87
2022-12-03T08:04:30.964Z,242.40
2022-12-03T08:09:23.529Z,329.97
2022-12-03T08:14:18.424Z,208.07
2022-12-03T08:19:11.937Z,298.27
2022-12-03T08:24:12.657Z,176.73
2022-12-03T08:29:06.584Z,105.73
2022-12-03T08:34:07.632Z,218.57
2022-12-03T08:39:01.464Z,169.80
2022-12-03T08:43:54.039Z,234.23
2022-12-03T08:48:48.946Z,192.13
2022-12-03T08:53:46.508Z,172.67
2022-12-03T08:58:39.509Z,245.60
2022-12-03T09:03:32.943Z,247.83
2022-12-03T09:08:25.575Z,176.70
2022-12-03T09:13:19.479Z,175.40
2022-12-03T09:18:12.005Z,226.30
2022-12-03T09:23:04.598Z,205.17
2022-12-03T09:27:57.141Z,276.17
2022-12-03T09:32:51.035Z,181.20
2022-12-03T09:37:43.572Z,368.33
2022-12-03T09:42:36.875Z,134.93
2022-12-03T09:47:30.631Z,114.03
2022-12-03T09:52:28.308Z,109.37
2022-12-03T09:57:21.065Z,91.37
2022-12-03T10:02:20.238Z,102.03
2022-12-03T10:07:13.163Z,81.73
2022-12-03T10:12:07.332Z,91.93
2022-12-03T10:17:00.324Z,80.40
2022-12-03T10:21:52.987Z,60.10
2022-12-03T10:26:46.578Z,116.90
2022-12-03T10:31:40.824Z,73.20
2022-12-03T10:36:33.788Z,68.13
2022-12-03T10:41:27.515Z,68.57
2022-12-03T10:46:21.365Z,63.57
2022-12-03T10:51:20.775Z,49.57
2022-12-03T10:56:15.977Z,46.07
2022-12-03T11:01:15.099Z,56.53
2022-12-03T11:06:08.037Z,48.03
2022-12-03T11:11:02.860Z,49.70
2022-12-03T11:15:55.604Z,54.13
2022-12-03T11:21:07.789Z,49.27
2022-12-03T11:26:00.693Z,48.67
2022-12-03T11:31:02.417Z,49.77
2022-12-03T11:36:12.888Z,49.83
2022-12-03T11:41:09.202Z,45.30
2022-12-03T11:46:10.285Z,43.97
2022-12-03T11:51:02.928Z,40.67
2022-12-03T11:56:06.587Z,35.73
2022-12-03T12:01:00.024Z,38.97
2022-12-03T12:06:04.641Z,38.10
2022-12-03T12:10:57.522Z,39.13
2022-12-03T12:15:50.229Z,31.53
2022-12-03T12:20:42.851Z,34.60
2022-12-03T12:25:38.234Z,35.07
2022-12-03T12:30:31.177Z,32.50
2022-12-03T12:35:25.000Z,34.20
2022-12-03T12:40:19.528Z,36.07
2022-12-03T12:45:17.269Z,40.90
2022-12-03T12:50:10.421Z,34.70
2022-12-03T12:55:05.311Z,36.67
2022-12-03T12:59:58.096Z,35.37
2022-12-03T13:04:52.024Z,39.13
2022-12-03T13:09:44.575Z,39.93
2022-12-03T13:14:38.359Z,34.30
2022-12-03T13:19:31.672Z,39.27
2022-12-03T13:24:30.418Z,33.90
2022-12-03T13:29:23.725Z,41.60
2022-12-03T13:34:19.748Z,34.23
2022-12-03T13:39:17.566Z,33.63
2022-12-03T13:44:19.128Z,34.10
2022-12-03T13:49:16.980Z,34.73
2022-12-03T13:54:14.561Z,34.10
2022-12-03T13:59:08.936Z,36.83
2022-12-03T14:04:02.932Z,34.93
2022-12-03T14:08:55.558Z,40.50
2022-12-03T14:13:48.137Z,36.00
2022-12-03T14:18:40.797Z,37.30
2022-12-03T14:23:34.706Z,34.97
2022-12-03T14:28:27.528Z,41.73
2022-12-03T14:33:20.076Z,45.10
2022-12-03T14:38:12.771Z,43.47
2022-12-03T14:43:06.785Z,41.33
2022-12-03T14:47:59.344Z,41.57
2022-12-03T14:52:51.940Z,45.43
2022-12-03T14:57:44.535Z,42.40
2022-12-03T15:02:38.606Z,43.10
2022-12-03T15:07:31.929Z,46.83
2022-12-03T15:12:24.685Z,61.07
2022-12-03T15:17:21.500Z,63.27
2022-12-03T15:22:19.511Z,72.70
2022-12-03T15:27:12.438Z,97.30
2022-12-03T15:32:05.175Z,93.77
2022-12-03T15:36:58.118Z,103.83
2022-12-03T15:41:52.129Z,98.43
2022-12-03T15:46:45.157Z,110.60
2022-12-03T15:51:37.833Z,113.73
2022-12-03T15:56:30.520Z,134.63
2022-12-03T16:01:24.695Z,127.40
2022-12-03T16:06:18.218Z,120.70
2022-12-03T16:11:10.903Z,143.93
2022-12-03T16:16:03.568Z,170.20
2022-12-03T16:20:57.565Z,165.43
2022-12-03T16:25:50.118Z,168.40
2022-12-03T16:30:42.798Z,172.87
2022-12-03T16:35:35.442Z,205.37
2022-12-03T16:40:29.642Z,216.70
2022-12-03T16:45:51.257Z,214.57
2022-12-03T16:50:43.861Z,210.47
2022-12-03T16:55:38.117Z,203.23
2022-12-03T17:00:30.703Z,219.13
2022-12-03T17:05:23.262Z,222.63
2022-12-03T17:10:15.904Z,208.13
2022-12-03T17:15:10.481Z,222.43
2022-12-03T17:20:03.718Z,231.60
2022-12-03T17:24:56.335Z,226.07
2022-12-03T17:29:48.932Z,213.17
2022-12-03T17:34:42.900Z,202.73
2022-12-03T17:39:35.494Z,217.43
2022-12-03T17:44:28.012Z,186.70
2022-12-03T17:49:20.535Z,201.47
2022-12-03T17:54:14.553Z,191.23
2022-12-03T17:59:07.124Z,213.37
2022-12-03T18:03:59.719Z,190.70
2022-12-03T18:08:52.324Z,207.33
2022-12-03T18:13:46.252Z,184.60
2022-12-03T18:18:38.810Z,228.47
2022-12-03T18:23:31.633Z,231.50
2022-12-03T18:28:24.187Z,217.93
2022-12-03T18:33:18.351Z,231.13
2022-12-03T18:38:11.738Z,220.47
2022-12-03T18:43:06.880Z,215.37
2022-12-03T18:47:59.516Z,229.87
2022-12-03T18:52:53.505Z,209.33
2022-12-03T18:57:46.036Z,205.57
2022-12-03T19:03:01.873Z,244.17
2022-12-03T19:07:53.853Z,235.30
2022-12-03T19:12:48.057Z,226.53
2022-12-03T19:17:40.652Z,221.63
2022-12-03T19:22:34.271Z,234.17
2022-12-03T19:27:26.811Z,189.67
2022-12-03T19:32:20.702Z,201.00
2022-12-03T19:37:13.585Z,223.67
2022-12-03T19:42:06.248Z,187.40
2022-12-03T19:46:58.846Z,201.67
2022-12-03T19:51:52.748Z,207.27
2022-12-03T19:56:46.259Z,204.13
2022-12-03T20:01:40.750Z,236.93
2022-12-03T20:06:34.770Z,205.93
2022-12-03T20:11:29.616Z,200.20
2022-12-03T20:16:22.290Z,194.37
2022-12-03T20:21:15.788Z,174.37
2022-12-03T20:26:08.907Z,157.00
2022-12-03T20:31:03.950Z,153.80
2022-12-03T20:35:57.261Z,158.47
2022-12-03T20:40:49.941Z,153.03
2022-12-03T20:45:42.592Z,156.97
2022-12-03T20:50:38.205Z,156.77
2022-12-03T20:55:32.840Z,162.57
2022-12-03T21:00:25.823Z,149.20
2022-12-03T21:05:18.561Z,160.27
2022-12-03T21:10:32.816Z,145.17
2022-12-03T21:15:25.446Z,162.43
2022-12-03T21:20:21.202Z,155.30
2022-12-03T21:25:15.592Z,160.37
2022-12-03T21:30:08.793Z,163.67
2022-12-03T21:35:01.442Z,181.90
2022-12-03T21:39:54.294Z,215.73
2022-12-03T21:44:48.459Z,244.07
2022-12-03T21:49:41.125Z,289.50
2022-12-03T21:54:33.721Z,319.13
2022-12-03T21:59:26.364Z,292.53
2022-12-03T22:04:20.312Z,425.90
2022-12-03T22:09:12.911Z,491.03
2022-12-03T22:14:06.913Z,640.70
2022-12-03T22:18:59.552Z,545.50
2022-12-03T22:23:53.554Z,552.93
2022-12-03T22:28:46.989Z,420.73
2022-12-03T22:33:39.656Z,404.10
2022-12-03T22:38:32.542Z,408.57
2022-12-03T22:43:26.848Z,384.00
2022-12-03T22:48:19.394Z,296.13
2022-12-03T22:53:12.113Z,239.30
2022-12-03T22:58:05.359Z,190.87
2022-12-03T23:02:59.417Z,230.83
2022-12-03T23:07:52.421Z,312.27
2022-12-03T23:12:45.036Z,282.70
2022-12-03T23:17:37.962Z,387.27
2022-12-03T23:22:32.020Z,372.90
2022-12-03T23:27:24.913Z,456.20
2022-12-03T23:32:17.834Z,458.33
2022-12-03T23:37:10.603Z,454.40
2022-12-03T23:42:04.612Z,463.83
2022-12-03T23:46:57.610Z,482.73
2022-12-03T23:51:50.635Z,381.03
2022-12-03T23:56:43.573Z,472.83
